createdAt,value
2022-12-31T16:13:02.970Z,39.77
2022-12-31T16:15:33.411Z,44.78
2022-12-31T16:18:05.721Z,46.05
2022-12-31T16:20:35.042Z,45.33
2022-12-31T16:23:04.256Z,45.95
2022-12-31T16:25:33.950Z,43.17
2022-12-31T16:28:04.135Z,42.38
2022-12-31T16:30:36.634Z,41.75
2022-12-31T16:33:12.677Z,41.25
2022-12-31T16:35:41.656Z,39.97
2022-12-31T16:38:16.822Z,40.05
2022-12-31T16:41:25.211Z,42.60
2022-12-31T16:43:53.782Z,41.88
2022-12-31T16:46:27.418Z,40.88
2022-12-31T16:49:17.553Z,42.53
2022-12-31T16:51:45.910Z,41.35
2022-12-31T16:54:28.779Z,40.90
2022-12-31T16:56:59.702Z,40.95
2022-12-31T16:59:35.383Z,42.10
2022-12-31T17:02:10.358Z,41.27
2022-12-31T17:04:43.226Z,41.08
2022-12-31T17:07:30.914Z,39.28
2022-12-31T17:10:35.078Z,38.92
2022-12-31T17:13:29.652Z,37.08
2022-12-31T17:16:00.363Z,37.17
2022-12-31T17:18:36.643Z,36.80
2022-12-31T17:21:11.827Z,36.60
2022-12-31T17:23:42.411Z,37.13
2022-12-31T17:26:14.660Z,35.80
2022-12-31T17:28:47.593Z,35.67
2022-12-31T17:31:39.548Z,37.05
2022-12-31T17:34:13.933Z,35.33
2022-12-31T17:36:59.191Z,36.60
2022-12-31T17:39:40.274Z,36.38
2022-12-31T17:42:10.683Z,35.67
2022-12-31T17:44:45.563Z,37.30
2022-12-31T17:47:17.433Z,35.97
2022-12-31T17:49:46.620Z,36.85
2022-12-31T17:52:16.869Z,36.53
2022-12-31T17:54:45.101Z,36.08
2022-12-31T17:57:27.918Z,36.05
2022-12-31T17:59:56.585Z,35.72
2022-12-31T18:02:24.902Z,35.35
2022-12-31T18:04:56.365Z,35.85
2022-12-31T18:07:27.239Z,36.60
2022-12-31T18:09:55.961Z,38.25
2022-12-31T18:12:24.652Z,36.50
2022-12-31T18:14:53.224Z,36.78
2022-12-31T18:17:21.905Z,35.47
2022-12-31T18:20:09.652Z,35.80
2022-12-31T18:22:40.100Z,35.13
2022-12-31T18:25:14.329Z,37.55
2022-12-31T18:27:43.250Z,36.35
2022-12-31T18:30:12.969Z,37.40
2022-12-31T18:32:42.267Z,35.58
2022-12-31T18:35:48.572Z,36.85
2022-12-31T18:38:18.019Z,36.42
2022-12-31T18:40:55.129Z,37.58
2022-12-31T18:43:23.741Z,35.55
2022-12-31T18:45:53.052Z,38.58
2022-12-31T18:48:21.827Z,37.33
2022-12-31T18:50:51.054Z,37.65
2022-12-31T18:53:22.470Z,40.28
2022-12-31T18:55:53.502Z,40.55
2022-12-31T18:58:21.797Z,38.83
2022-12-31T19:00:51.389Z,37.85
2022-12-31T19:03:22.533Z,39.50
2022-12-31T19:05:52.711Z,37.90
2022-12-31T19:08:22.945Z,37.92
2022-12-31T19:10:52.925Z,38.53
2022-12-31T19:13:21.570Z,39.10
2022-12-31T19:15:52.330Z,40.50
2022-12-31T19:18:20.659Z,39.17
2022-12-31T19:20:49.338Z,37.58
2022-12-31T19:23:20.814Z,39.53
2022-12-31T19:25:49.838Z,38.90
2022-12-31T19:28:26.745Z,40.35
2022-12-31T19:33:22.947Z,39.60
2022-12-31T19:35:51.251Z,40.00
2022-12-31T19:38:23.943Z,42.10
2022-12-31T19:40:53.622Z,40.45
2022-12-31T19:43:24.238Z,40.20
2022-12-31T19:45:53.169Z,42.00
2022-12-31T19:48:30.489Z,41.15
2022-12-31T19:51:01.120Z,39.80
2022-12-31T19:53:29.826Z,42.70
2022-12-31T19:55:58.407Z,41.75
2022-12-31T19:58:28.383Z,41.03
2022-12-31T20:01:02.775Z,39.88
2022-12-31T20:03:33.113Z,41.65
2022-12-31T20:06:07.839Z,40.80
2022-12-31T20:08:38.546Z,40.80
2022-12-31T20:11:13.455Z,40.80
2022-12-31T20:13:42.366Z,39.03
2022-12-31T20:16:16.109Z,40.40
2022-12-31T20:18:46.790Z,40.28
2022-12-31T20:21:19.363Z,39.83
2022-12-31T20:23:50.065Z,39.85
2022-12-31T20:26:20.143Z,42.28
2022-12-31T20:28:48.595Z,41.15
2022-12-31T20:31:19.986Z,40.80
2022-12-31T20:33:48.838Z,41.33
2022-12-31T20:36:43.400Z,41.47
2022-12-31T20:39:12.167Z,41.88
2022-12-31T20:41:40.888Z,40.47
2022-12-31T20:44:09.707Z,40.05
2022-12-31T20:46:38.476Z,39.78
2022-12-31T20:49:07.087Z,40.85
2022-12-31T20:51:35.787Z,41.35
2022-12-31T20:54:09.244Z,39.15
2022-12-31T20:56:40.194Z,40.97
2022-12-31T20:59:10.708Z,41.13
2022-12-31T21:02:11.617Z,39.97
2022-12-31T21:04:28.536Z,40.40
2022-12-31T21:06:57.338Z,41.45
2022-12-31T21:09:26.000Z,42.55
2022-12-31T21:12:12.962Z,42.30
2022-12-31T21:14:44.689Z,42.10
2022-12-31T21:17:13.776Z,40.45
2022-12-31T21:19:41.882Z,39.40
2022-12-31T21:22:10.635Z,38.92
2022-12-31T21:24:40.012Z,38.35
2022-12-31T21:27:08.410Z,39.78
2022-12-31T21:29:55.635Z,40.05
2022-12-31T21:32:26.153Z,41.20
2022-12-31T21:35:31.186Z,41.45
2022-12-31T21:37:58.953Z,41.42
2022-12-31T21:40:30.445Z,41.17
2022-12-31T21:42:59.380Z,41.97
2022-12-31T21:45:28.213Z,40.85
2022-12-31T21:48:18.546Z,40.35
2022-12-31T21:50:52.395Z,40.53
2022-12-31T21:53:26.255Z,40.65
2022-12-31T21:56:09.870Z,39.95
2022-12-31T21:58:41.401Z,40.22
2022-12-31T22:01:40.145Z,39.80
2022-12-31T22:04:28.277Z,40.30
2022-12-31T22:06:57.638Z,38.90
2022-12-31T22:09:25.807Z,38.30
2022-12-31T22:11:54.307Z,38.80
2022-12-31T22:14:22.844Z,39.92
2022-12-31T22:16:51.543Z,39.10
2022-12-31T22:19:19.859Z,37.78
2022-12-31T22:21:48.219Z,37.25
2022-12-31T22:24:16.754Z,37.58
2022-12-31T22:26:46.952Z,38.45
2022-12-31T22:29:15.833Z,36.92
2022-12-31T22:31:44.539Z,36.58
2022-12-31T22:34:12.747Z,36.42
2022-12-31T22:36:40.974Z,36.95
2022-12-31T22:39:44.428Z,36.53
2022-12-31T22:42:03.819Z,34.35
2022-12-31T22:44:31.971Z,34.72
2022-12-31T22:47:00.354Z,35.17
2022-12-31T22:49:28.648Z,34.05
2022-12-31T22:51:59.902Z,33.67
2022-12-31T22:54:31.339Z,36.47
2022-12-31T22:57:00.025Z,37.05
2022-12-31T22:59:28.329Z,35.45
2022-12-31T23:01:56.995Z,36.28
2022-12-31T23:04:25.387Z,34.63
2022-12-31T23:06:53.646Z,36.35
2022-12-31T23:09:40.832Z,36.95
2022-12-31T23:12:12.135Z,33.53
2022-12-31T23:14:59.067Z,34.55
2022-12-31T23:17:46.704Z,34.33
2022-12-31T23:23:10.171Z,33.40
2022-12-31T23:25:41.678Z,33.60
2022-12-31T23:28:12.838Z,32.13
2022-12-31T23:30:41.672Z,34.10
2022-12-31T23:33:18.300Z,33.20
2022-12-31T23:35:47.142Z,32.83
2022-12-31T23:38:18.586Z,35.83
2022-12-31T23:40:47.474Z,35.30
2022-12-31T23:43:21.565Z,43.67
2022-12-31T23:45:53.973Z,51.03
2022-12-31T23:48:22.610Z,51.75
2022-12-31T23:50:53.990Z,54.03
2022-12-31T23:53:25.692Z,56.53
2022-12-31T23:55:54.825Z,54.13
2022-12-31T23:58:23.650Z,51.42
